sensor_id;sensor_type;location;lat;lon;timestamp;pressure;altitude;pressure_sealevel;temperature;humidity
76853;BME280;65825;52.232;10.566;2023-04-30T00:01:37;101401.00;;;6.07;84.70
76853;BME280;65825;52.232;10.566;2023-04-30T00:04:02;101395.75;;;6.11;83.27
76853;BME280;65825;52.232;10.566;2023-04-30T00:06:27;101394.88;;;6.06;84.59
76853;BME280;65825;52.232;10.566;2023-04-30T00:08:53;101397.53;;;6.02;85.21
76853;BME280;65825;52.232;10.566;2023-04-30T00:11:18;101402.75;;;6.05;83.84
76853;BME280;65825;52.232;10.566;2023-04-30T00:13:43;101403.66;;;5.93;83.68
76853;BME280;65825;52.232;10.566;2023-04-30T00:16:08;101410.66;;;5.87;84.61
76853;BME280;65825;52.232;10.566;2023-04-30T00:18:34;101401.91;;;5.77;84.76
76853;BME280;65825;52.232;10.566;2023-04-30T00:21:00;101406.25;;;5.75;84.34
76853;BME280;65825;52.232;10.566;2023-04-30T00:23:25;101404.53;;;5.82;84.12
76853;BME280;65825;52.232;10.566;2023-04-30T00:25:50;101403.63;;;5.77;83.91
76853;BME280;65825;52.232;10.566;2023-04-30T00:28:15;101406.28;;;5.72;84.22
76853;BME280;65825;52.232;10.566;2023-04-30T00:30:41;101406.28;;;5.66;84.33
76853;BME280;65825;52.232;10.566;2023-04-30T00:33:06;101416.75;;;5.65;84.24
76853;BME280;65825;52.232;10.566;2023-04-30T00:35:31;101422.84;;;5.62;84.22
76853;BME280;65825;52.232;10.566;2023-04-30T00:37:56;101421.09;;;5.57;85.03
76853;BME280;65825;52.232;10.566;2023-04-30T00:40:21;101425.47;;;5.58;84.72
76853;BME280;65825;52.232;10.566;2023-04-30T00:42:47;101427.22;;;5.51;85.42
76853;BME280;65825;52.232;10.566;2023-04-30T00:45:13;101425.47;;;5.52;84.95
76853;BME280;65825;52.232;10.566;2023-04-30T00:47:38;101431.59;;;5.46;84.62
76853;BME280;65825;52.232;10.566;2023-04-30T00:50:05;101435.91;;;5.31;85.12
76853;BME280;65825;52.232;10.566;2023-04-30T00:52:30;101435.91;;;5.25;85.52
76853;BME280;65825;52.232;10.566;2023-04-30T00:54:56;101445.53;;;5.29;85.07
76853;BME280;65825;52.232;10.566;2023-04-30T00:57:21;101449.84;;;5.16;85.31
76853;BME280;65825;52.232;10.566;2023-04-30T00:59:47;101446.34;;;5.11;85.82
76853;BME280;65825;52.232;10.566;2023-04-30T01:02:13;101443.75;;;5.07;85.84
76853;BME280;65825;52.232;10.566;2023-04-30T01:04:39;101453.28;;;4.99;86.34
76853;BME280;65825;52.232;10.566;2023-04-30T01:07:04;101453.28;;;4.96;86.68
76853;BME280;65825;52.232;10.566;2023-04-30T01:09:30;101452.44;;;4.97;86.00
76853;BME280;65825;52.232;10.566;2023-04-30T01:12:14;101461.13;;;4.91;86.27
76853;BME280;65825;52.232;10.566;2023-04-30T01:20:10;101465.47;;;4.92;86.42
76853;BME280;65825;52.232;10.566;2023-04-30T01:22:46;101458.47;;;4.81;85.76
76853;BME280;65825;52.232;10.566;2023-04-30T01:28:13;101464.56;;;4.77;87.10
76853;BME280;65825;52.232;10.566;2023-04-30T01:30:40;101459.31;;;4.80;85.84
76853;BME280;65825;52.232;10.566;2023-04-30T01:33:08;101460.16;;;4.71;86.18
76853;BME280;65825;52.232;10.566;2023-04-30T01:38:34;101463.63;;;4.63;86.61
76853;BME280;65825;52.232;10.566;2023-04-30T01:44:18;101469.63;;;4.41;87.22
76853;BME280;65825;52.232;10.566;2023-04-30T01:46:55;101471.34;;;4.40;86.94
76853;BME280;65825;52.232;10.566;2023-04-30T01:49:41;101472.19;;;4.33;86.93
76853;BME280;65825;52.232;10.566;2023-04-30T01:52:41;101473.91;;;4.30;87.00
76853;BME280;65825;52.232;10.566;2023-04-30T01:55:14;101475.63;;;4.28;86.54
76853;BME280;65825;52.232;10.566;2023-04-30T01:57:56;101480.88;;;4.31;87.11
76853;BME280;65825;52.232;10.566;2023-04-30T02:00:22;101484.28;;;4.21;87.74
76853;BME280;65825;52.232;10.566;2023-04-30T02:02:47;101477.28;;;4.15;88.01
76853;BME280;65825;52.232;10.566;2023-04-30T02:05:12;101485.97;;;4.10;88.20
76853;BME280;65825;52.232;10.566;2023-04-30T02:07:42;101495.50;;;4.05;88.47
76853;BME280;65825;52.232;10.566;2023-04-30T02:10:09;101500.72;;;4.08;88.27
76853;BME280;65825;52.232;10.566;2023-04-30T02:12:36;101506.78;;;4.01;88.06
76853;BME280;65825;52.232;10.566;2023-04-30T02:15:02;101505.03;;;3.98;88.66
76853;BME280;65825;52.232;10.566;2023-04-30T02:17:28;101497.16;;;3.97;88.95
76853;BME280;65825;52.232;10.566;2023-04-30T02:19:53;101502.41;;;3.97;88.85
76853;BME280;65825;52.232;10.566;2023-04-30T02:22:18;101499.78;;;3.94;89.66
76853;BME280;65825;52.232;10.566;2023-04-30T02:24:44;101502.38;;;3.92;89.63
76853;BME280;65825;52.232;10.566;2023-04-30T02:27:09;101502.34;;;3.88;89.96
76853;BME280;65825;52.232;10.566;2023-04-30T02:29:35;101510.22;;;3.94;89.87
76853;BME280;65825;52.232;10.566;2023-04-30T02:32:00;101507.53;;;3.86;90.40
76853;BME280;65825;52.232;10.566;2023-04-30T02:34:25;101508.44;;;3.93;89.72
76853;BME280;65825;52.232;10.566;2023-04-30T02:36:51;101506.69;;;3.87;89.94
76853;BME280;65825;52.232;10.566;2023-04-30T02:39:16;101515.41;;;3.88;90.02
76853;BME280;65825;52.232;10.566;2023-04-30T02:41:41;101510.19;;;3.88;89.75
76853;BME280;65825;52.232;10.566;2023-04-30T02:44:06;101508.34;;;3.79;90.13
76853;BME280;65825;52.232;10.566;2023-04-30T02:46:32;101508.34;;;3.78;89.68
76853;BME280;65825;52.232;10.566;2023-04-30T02:48:59;101520.41;;;3.65;90.76
76853;BME280;65825;52.232;10.566;2023-04-30T02:51:24;101513.44;;;3.63;90.43
76853;BME280;65825;52.232;10.566;2023-04-30T02:53:50;101517.81;;;3.68;89.76
76853;BME280;65825;52.232;10.566;2023-04-30T02:56:16;101509.00;;;3.56;90.17
76853;BME280;65825;52.232;10.566;2023-04-30T02:58:41;101515.03;;;3.49;90.49
76853;BME280;65825;52.232;10.566;2023-04-30T03:01:06;101515.03;;;3.49;89.92
76853;BME280;65825;52.232;10.566;2023-04-30T03:03:32;101516.66;;;3.41;90.16
76853;BME280;65825;52.232;10.566;2023-04-30T03:05:57;101506.16;;;3.35;90.66
76853;BME280;65825;52.232;10.566;2023-04-30T03:08:24;101514.91;;;3.37;90.27
76853;BME280;65825;52.232;10.566;2023-04-30T03:10:49;101514.84;;;3.31;90.74
76853;BME280;65825;52.232;10.566;2023-04-30T03:13:14;101513.06;;;3.30;89.77
76853;BME280;65825;52.232;10.566;2023-04-30T03:15:40;101518.25;;;3.25;89.77
76853;BME280;65825;52.232;10.566;2023-04-30T03:18:05;101525.13;;;3.19;90.39
76853;BME280;65825;52.232;10.566;2023-04-30T03:20:30;101512.81;;;3.06;90.63
76853;BME280;65825;52.232;10.566;2023-04-30T03:22:56;101527.59;;;3.07;90.90
76853;BME280;65825;52.232;10.566;2023-04-30T03:25:21;101532.03;;;3.14;90.11
76853;BME280;65825;52.232;10.566;2023-04-30T03:27:46;101536.28;;;3.07;90.33
76853;BME280;65825;52.232;10.566;2023-04-30T03:30:11;101526.72;;;3.06;90.58
76853;BME280;65825;52.232;10.566;2023-04-30T03:32:37;101535.38;;;3.04;90.23
76853;BME280;65825;52.232;10.566;2023-04-30T03:35:04;101529.25;;;3.00;90.26
76853;BME280;65825;52.232;10.566;2023-04-30T03:37:29;101536.16;;;2.97;90.32
76853;BME280;65825;52.232;10.566;2023-04-30T03:39:54;101525.69;;;2.92;90.56
76853;BME280;65825;52.232;10.566;2023-04-30T03:42:20;101529.09;;;2.87;90.99
76853;BME280;65825;52.232;10.566;2023-04-30T03:44:45;101530.84;;;2.88;90.49
76853;BME280;65825;52.232;10.566;2023-04-30T03:47:10;101540.50;;;2.95;89.96
76853;BME280;65825;52.232;10.566;2023-04-30T03:49:35;101530.81;;;2.85;90.37
76853;BME280;65825;52.232;10.566;2023-04-30T03:52:01;101533.41;;;2.83;90.26
76853;BME280;65825;52.232;10.566;2023-04-30T03:54:27;101533.34;;;2.80;90.50
76853;BME280;65825;52.232;10.566;2023-04-30T03:56:53;101543.72;;;2.76;90.88
76853;BME280;65825;52.232;10.566;2023-04-30T03:59:18;101543.75;;;2.77;90.47
76853;BME280;65825;52.232;10.566;2023-04-30T04:01:44;101544.66;;;2.81;90.92
76853;BME280;65825;52.232;10.566;2023-04-30T04:04:10;101548.06;;;2.77;90.28
76853;BME280;65825;52.232;10.566;2023-04-30T04:06:35;101548.97;;;2.79;90.78
76853;BME280;65825;52.232;10.566;2023-04-30T04:09:00;101549.03;;;2.83;90.10
76853;BME280;65825;52.232;10.566;2023-04-30T04:11:26;101548.19;;;2.86;90.38
76853;BME280;65825;52.232;10.566;2023-04-30T04:13:51;101549.91;;;2.82;90.15
76853;BME280;65825;52.232;10.566;2023-04-30T04:16:16;101554.16;;;2.76;90.95
76853;BME280;65825;52.232;10.566;2023-04-30T04:18:41;101555.94;;;2.80;90.96
76853;BME280;65825;52.232;10.566;2023-04-30T04:21:07;101557.78;;;2.87;90.78
76853;BME280;65825;52.232;10.566;2023-04-30T04:23:32;101563.00;;;2.87;90.65
76853;BME280;65825;52.232;10.566;2023-04-30T04:25:58;101563.94;;;2.93;90.34
76853;BME280;65825;52.232;10.566;2023-04-30T04:28:24;101565.59;;;2.87;90.50
76853;BME280;65825;52.232;10.566;2023-04-30T04:30:50;101576.09;;;2.93;90.41
76853;BME280;65825;52.232;10.566;2023-04-30T04:33:16;101574.34;;;2.92;90.89
76853;BME280;65825;52.232;10.566;2023-04-30T04:35:42;101581.44;;;3.02;90.27
76853;BME280;65825;52.232;10.566;2023-04-30T04:38:08;101584.06;;;3.03;90.19
76853;BME280;65825;52.232;10.566;2023-04-30T04:40:33;101585.84;;;3.06;90.57
76853;BME280;65825;52.232;10.566;2023-04-30T04:42:59;101594.59;;;3.11;90.38
76853;BME280;65825;52.232;10.566;2023-04-30T04:45:25;101588.66;;;3.22;90.22
76853;BME280;65825;52.232;10.566;2023-04-30T04:47:50;101596.47;;;3.22;90.86
76853;BME280;65825;52.232;10.566;2023-04-30T04:50:16;101599.22;;;3.33;90.32
76853;BME280;65825;52.232;10.566;2023-04-30T04:52:42;101597.56;;;3.39;90.15
76853;BME280;65825;52.232;10.566;2023-04-30T04:55:07;101600.19;;;3.42;90.05
76853;BME280;65825;52.232;10.566;2023-04-30T04:57:32;101599.44;;;3.49;89.71
76853;BME280;65825;52.232;10.566;2023-04-30T04:59:58;101605.59;;;3.57;89.63
76853;BME280;65825;52.232;10.566;2023-04-30T05:02:23;101607.44;;;3.67;89.86
76853;BME280;65825;52.232;10.566;2023-04-30T05:04:49;101604.91;;;3.75;89.76
76853;BME280;65825;52.232;10.566;2023-04-30T05:07:18;101614.59;;;3.85;89.87
76853;BME280;65825;52.232;10.566;2023-04-30T05:09:44;101615.53;;;3.90;90.14
76853;BME280;65825;52.232;10.566;2023-04-30T05:12:10;101615.59;;;3.97;89.54
76853;BME280;65825;52.232;10.566;2023-04-30T05:14:36;101614.78;;;4.04;90.17
76853;BME280;65825;52.232;10.566;2023-04-30T05:17:01;101620.97;;;4.15;89.83
76853;BME280;65825;52.232;10.566;2023-04-30T05:19:26;101626.31;;;4.29;89.67
76853;BME280;65825;52.232;10.566;2023-04-30T05:21:51;101622.09;;;4.40;89.27
76853;BME280;65825;52.232;10.566;2023-04-30T05:24:17;101619.63;;;4.59;88.81
76853;BME280;65825;52.232;10.566;2023-04-30T05:26:42;101629.28;;;4.69;88.74
76853;BME280;65825;52.232;10.566;2023-04-30T05:29:08;101625.84;;;4.76;88.05
76853;BME280;65825;52.232;10.566;2023-04-30T05:31:34;101634.59;;;4.86;87.34
76853;BME280;65825;52.232;10.566;2023-04-30T05:34:00;101626.81;;;4.90;87.03
76853;BME280;65825;52.232;10.566;2023-04-30T05:36:25;101632.16;;;5.07;85.65
76853;BME280;65825;52.232;10.566;2023-04-30T05:38:52;101639.16;;;5.18;84.92
76853;BME280;65825;52.232;10.566;2023-04-30T05:41:17;101635.75;;;5.30;84.56
76853;BME280;65825;52.232;10.566;2023-04-30T05:43:43;101637.56;;;5.47;83.18
76853;BME280;65825;52.232;10.566;2023-04-30T05:46:08;101640.22;;;5.55;81.32
76853;BME280;65825;52.232;10.566;2023-04-30T05:48:33;101643.72;;;5.60;80.25
76853;BME280;65825;52.232;10.566;2023-04-30T05:50:58;101643.78;;;5.78;79.77
76853;BME280;65825;52.232;10.566;2023-04-30T05:53:24;101637.75;;;5.92;78.09
76853;BME280;65825;52.232;10.566;2023-04-30T05:55:49;101647.38;;;6.04;77.05
76853;BME280;65825;52.232;10.566;2023-04-30T05:58:14;101652.63;;;6.07;75.37
76853;BME280;65825;52.232;10.566;2023-04-30T06:00:40;101642.16;;;6.13;75.63
76853;BME280;65825;52.232;10.566;2023-04-30T06:03:05;101648.25;;;6.16;74.82
76853;BME280;65825;52.232;10.566;2023-04-30T06:05:31;101645.66;;;6.21;75.74
76853;BME280;65825;52.232;10.566;2023-04-30T06:07:56;101651.78;;;6.24;75.84
76853;BME280;65825;52.232;10.566;2023-04-30T06:10:22;101653.53;;;6.43;74.49
76853;BME280;65825;52.232;10.566;2023-04-30T06:12:47;101655.31;;;6.50;72.38
76853;BME280;65825;52.232;10.566;2023-04-30T06:15:13;101643.94;;;6.62;72.82
76853;BME280;65825;52.232;10.566;2023-04-30T06:17:38;101649.16;;;6.72;72.58
76853;BME280;65825;52.232;10.566;2023-04-30T06:20:04;101647.41;;;6.76;72.28
76853;BME280;65825;52.232;10.566;2023-04-30T06:22:31;101643.91;;;6.87;70.42
76853;BME280;65825;52.232;10.566;2023-04-30T06:24:56;101637.75;;;6.97;70.09
76853;BME280;65825;52.232;10.566;2023-04-30T06:27:22;101652.63;;;6.97;68.91
76853;BME280;65825;52.232;10.566;2023-04-30T06:29:47;101645.59;;;7.14;67.64
76853;BME280;65825;52.232;10.566;2023-04-30T06:32:12;101643.78;;;7.28;68.26
76853;BME280;65825;52.232;10.566;2023-04-30T06:34:38;101645.50;;;7.42;68.80
76853;BME280;65825;52.232;10.566;2023-04-30T06:37:03;101645.50;;;7.50;68.35
76853;BME280;65825;52.232;10.566;2023-04-30T06:39:28;101648.06;;;7.62;67.27
76853;BME280;65825;52.232;10.566;2023-04-30T06:41:54;101646.25;;;7.76;68.28
76853;BME280;65825;52.232;10.566;2023-04-30T06:44:19;101651.38;;;7.92;66.91
76853;BME280;65825;52.232;10.566;2023-04-30T06:46:45;101646.94;;;8.09;67.51
76853;BME280;65825;52.232;10.566;2023-04-30T06:49:12;101652.09;;;8.27;65.90
76853;BME280;65825;52.232;10.566;2023-04-30T06:51:41;101657.22;;;8.44;65.12
76853;BME280;65825;52.232;10.566;2023-04-30T06:54:07;101652.81;;;8.47;64.16
76853;BME280;65825;52.232;10.566;2023-04-30T06:56:32;101651.78;;;8.65;63.55
76853;BME280;65825;52.232;10.566;2023-04-30T06:58:57;101639.34;;;8.80;63.50
76853;BME280;65825;52.232;10.566;2023-04-30T07:01:23;101641.88;;;8.92;62.44
76853;BME280;65825;52.232;10.566;2023-04-30T07:03:48;101640.84;;;9.07;62.06
76853;BME280;65825;52.232;10.566;2023-04-30T07:06:15;101641.59;;;9.21;61.97
76853;BME280;65825;52.232;10.566;2023-04-30T07:08:40;101641.38;;;9.39;61.51
76853;BME280;65825;52.232;10.566;2023-04-30T07:11:07;101635.97;;;9.49;61.18
76853;BME280;65825;52.232;10.566;2023-04-30T07:13:33;101641.09;;;9.63;60.84
76853;BME280;65825;52.232;10.566;2023-04-30T07:15:58;101641.63;;;9.86;60.03
76853;BME280;65825;52.232;10.566;2023-04-30T07:18:23;101653.72;;;10.06;58.84
76853;BME280;65825;52.232;10.566;2023-04-30T07:20:49;101638.31;;;10.34;56.73
76853;BME280;65825;52.232;10.566;2023-04-30T07:23:14;101640.47;;;10.64;58.92
76853;BME280;65825;52.232;10.566;2023-04-30T07:25:39;101634.66;;;10.94;55.11
76853;BME280;65825;52.232;10.566;2023-04-30T07:28:05;101641.34;;;11.57;55.39
76853;BME280;65825;52.232;10.566;2023-04-30T07:30:30;101643.97;;;11.99;55.32
76853;BME280;65825;52.232;10.566;2023-04-30T07:32:55;101636.59;;;12.50;51.20
76853;BME280;65825;52.232;10.566;2023-04-30T07:35:20;101640.00;;;13.54;50.77
76853;BME280;65825;52.232;10.566;2023-04-30T07:37:46;101636.88;;;15.31;46.26
76853;BME280;65825;52.232;10.566;2023-04-30T07:40:12;101636.06;;;17.47;41.36
76853;BME280;65825;52.232;10.566;2023-04-30T07:42:40;101640.53;;;19.44;34.43
76853;BME280;65825;52.232;10.566;2023-04-30T07:45:11;101643.19;;;21.02;32.07
76853;BME280;65825;52.232;10.566;2023-04-30T07:47:37;101635.66;;;21.94;28.14
76853;BME280;65825;52.232;10.566;2023-04-30T07:50:02;101633.59;;;23.57;27.68
76853;BME280;65825;52.232;10.566;2023-04-30T07:52:28;101631.63;;;24.92;26.11
76853;BME280;65825;52.232;10.566;2023-04-30T07:54:53;101649.66;;;25.49;23.59
76853;BME280;65825;52.232;10.566;2023-04-30T07:57:18;101640.00;;;26.77;23.32
76853;BME280;65825;52.232;10.566;2023-04-30T07:59:44;101639.19;;;27.70;21.24
76853;BME280;65825;52.232;10.566;2023-04-30T08:02:09;101638.69;;;28.64;20.29
76853;BME280;65825;52.232;10.566;2023-04-30T08:04:34;101647.97;;;29.85;17.77
76853;BME280;65825;52.232;10.566;2023-04-30T08:07:02;101660.03;;;30.73;18.30
76853;BME280;65825;52.232;10.566;2023-04-30T08:09:28;101658.66;;;31.65;16.20
76853;BME280;65825;52.232;10.566;2023-04-30T08:11:56;101656.88;;;31.73;15.14
76853;BME280;65825;52.232;10.566;2023-04-30T08:14:21;101642.88;;;32.35;14.84
76853;BME280;65825;52.232;10.566;2023-04-30T08:16:48;101640.31;;;32.91;13.54
76853;BME280;65825;52.232;10.566;2023-04-30T08:19:14;101641.19;;;33.64;13.97
76853;BME280;65825;52.232;10.566;2023-04-30T08:21:39;101636.72;;;34.33;13.14
76853;BME280;65825;52.232;10.566;2023-04-30T08:24:04;101636.09;;;34.15;13.01
76853;BME280;65825;52.232;10.566;2023-04-30T08:26:30;101636.56;;;35.18;12.66
76853;BME280;65825;52.232;10.566;2023-04-30T08:28:55;101640.16;;;36.22;11.62
76853;BME280;65825;52.232;10.566;2023-04-30T08:31:20;101633.13;;;36.84;10.89
76853;BME280;65825;52.232;10.566;2023-04-30T08:33:46;101627.22;;;37.50;10.03
76853;BME280;65825;52.232;10.566;2023-04-30T08:36:11;101634.53;;;36.44;10.66
76853;BME280;65825;52.232;10.566;2023-04-30T08:38:36;101630.28;;;37.89;9.76
76853;BME280;65825;52.232;10.566;2023-04-30T08:41:10;101624.09;;;38.61;10.13
76853;BME280;65825;52.232;10.566;2023-04-30T08:43:36;101625.53;;;39.69;9.06
76853;BME280;65825;52.232;10.566;2023-04-30T08:46:01;101621.19;;;40.12;8.42
76853;BME280;65825;52.232;10.566;2023-04-30T08:48:28;101615.09;;;39.91;8.26
76853;BME280;65825;52.232;10.566;2023-04-30T08:50:54;101615.56;;;40.38;8.07
76853;BME280;65825;52.232;10.566;2023-04-30T08:53:20;101609.41;;;41.11;8.50
76853;BME280;65825;52.232;10.566;2023-04-30T08:55:46;101612.00;;;41.37;8.09
76853;BME280;65825;52.232;10.566;2023-04-30T08:58:12;101611.22;;;42.15;6.92
76853;BME280;65825;52.232;10.566;2023-04-30T09:00:38;101604.91;;;41.90;6.67
76853;BME280;65825;52.232;10.566;2023-04-30T09:03:06;101600.88;;;41.86;7.24
76853;BME280;65825;52.232;10.566;2023-04-30T09:05:32;101605.75;;;42.45;7.44
76853;BME280;65825;52.232;10.566;2023-04-30T09:07:58;101602.72;;;41.92;6.60
76853;BME280;65825;52.232;10.566;2023-04-30T09:10:23;101598.09;;;41.86;6.42
76853;BME280;65825;52.232;10.566;2023-04-30T09:13:02;101591.19;;;42.90;6.59
76853;BME280;65825;52.232;10.566;2023-04-30T09:15:28;101591.38;;;42.66;6.63
76853;BME280;65825;52.232;10.566;2023-04-30T09:20:36;101591.56;;;43.93;6.52
76853;BME280;65825;52.232;10.566;2023-04-30T09:23:07;101590.06;;;43.33;5.93
76853;BME280;65825;52.232;10.566;2023-04-30T09:25:42;101597.03;;;44.39;7.05
76853;BME280;65825;52.232;10.566;2023-04-30T09:30:33;101614.00;;;44.37;5.51
76853;BME280;65825;52.232;10.566;2023-04-30T09:32:59;101612.88;;;44.50;5.26
76853;BME280;65825;52.232;10.566;2023-04-30T09:35:35;101602.69;;;45.28;5.54
76853;BME280;65825;52.232;10.566;2023-04-30T09:38:01;101606.44;;;45.05;5.30
76853;BME280;65825;52.232;10.566;2023-04-30T09:40:38;101616.75;;;45.05;4.83
76853;BME280;65825;52.232;10.566;2023-04-30T09:43:07;101604.25;;;45.57;5.83
76853;BME280;65825;52.232;10.566;2023-04-30T09:45:43;101614.06;;;44.82;6.41
76853;BME280;65825;52.232;10.566;2023-04-30T09:48:11;101604.25;;;45.90;5.07
76853;BME280;65825;52.232;10.566;2023-04-30T09:50:38;101602.78;;;46.04;5.84
76853;BME280;65825;52.232;10.566;2023-04-30T09:53:08;101597.25;;;46.30;5.02
76853;BME280;65825;52.232;10.566;2023-04-30T09:55:35;101597.19;;;46.25;5.04
76853;BME280;65825;52.232;10.566;2023-04-30T09:58:05;101599.91;;;46.90;4.86
76853;BME280;65825;52.232;10.566;2023-04-30T10:00:33;101596.53;;;46.61;4.38
76853;BME280;65825;52.232;10.566;2023-04-30T10:03:03;101592.19;;;46.27;4.90
76853;BME280;65825;52.232;10.566;2023-04-30T10:05:29;101587.97;;;46.46;5.25
76853;BME280;65825;52.232;10.566;2023-04-30T10:07:56;101588.84;;;47.31;4.03
76853;BME280;65825;52.232;10.566;2023-04-30T10:10:23;101586.56;;;46.22;4.15
76853;BME280;65825;52.232;10.566;2023-04-30T10:12:53;101580.03;;;47.13;4.17
76853;BME280;65825;52.232;10.566;2023-04-30T10:15:24;101575.16;;;46.72;3.99
76853;BME280;65825;52.232;10.566;2023-04-30T10:17:56;101580.22;;;45.89;4.39
76853;BME280;65825;52.232;10.566;2023-04-30T10:20:25;101581.94;;;44.91;4.28
76853;BME280;65825;52.232;10.566;2023-04-30T10:22:50;101585.44;;;45.85;4.10
76853;BME280;65825;52.232;10.566;2023-04-30T10:25:17;101579.38;;;46.31;4.54
76853;BME280;65825;52.232;10.566;2023-04-30T10:27:47;101564.91;;;46.34;4.38
76853;BME280;65825;52.232;10.566;2023-04-30T10:30:13;101576.66;;;46.84;4.45
76853;BME280;65825;52.232;10.566;2023-04-30T10:33:11;101570.00;;;47.22;4.39
76853;BME280;65825;52.232;10.566;2023-04-30T10:35:52;101563.06;;;47.61;4.10
76853;BME280;65825;52.232;10.566;2023-04-30T10:38:23;101558.81;;;46.64;3.69
76853;BME280;65825;52.232;10.566;2023-04-30T10:40:50;101549.97;;;47.35;3.42
76853;BME280;65825;52.232;10.566;2023-04-30T10:43:18;101543.25;;;47.04;3.99
76853;BME280;65825;52.232;10.566;2023-04-30T10:45:46;101534.81;;;46.68;4.35
76853;BME280;65825;52.232;10.566;2023-04-30T10:48:13;101534.63;;;47.06;4.31
76853;BME280;65825;52.232;10.566;2023-04-30T10:50:41;101531.94;;;47.16;3.68
76853;BME280;65825;52.232;10.566;2023-04-30T10:53:11;101533.09;;;47.20;4.15
76853;BME280;65825;52.232;10.566;2023-04-30T10:55:46;101530.53;;;47.50;3.60
76853;BME280;65825;52.232;10.566;2023-04-30T10:58:25;101534.16;;;47.14;4.84
76853;BME280;65825;52.232;10.566;2023-04-30T11:00:59;101528.28;;;47.98;4.36
76853;BME280;65825;52.232;10.566;2023-04-30T11:03:27;101519.72;;;46.95;3.99
76853;BME280;65825;52.232;10.566;2023-04-30T11:05:52;101513.25;;;48.24;3.68
76853;BME280;65825;52.232;10.566;2023-04-30T11:08:17;101520.19;;;48.12;3.20
76853;BME280;65825;52.232;10.566;2023-04-30T11:10:58;101505.19;;;47.30;2.96
76853;BME280;65825;52.232;10.566;2023-04-30T11:13:25;101506.22;;;47.60;4.26
76853;BME280;65825;52.232;10.566;2023-04-30T11:15:51;101500.97;;;48.40;3.49
76853;BME280;65825;52.232;10.566;2023-04-30T11:18:17;101498.41;;;48.24;3.86
76853;BME280;65825;52.232;10.566;2023-04-30T11:20:48;101491.03;;;48.03;3.28
76853;BME280;65825;52.232;10.566;2023-04-30T11:23:22;101487.66;;;46.23;4.47
76853;BME280;65825;52.232;10.566;2023-04-30T11:25:47;101493.31;;;46.81;3.69
76853;BME280;65825;52.232;10.566;2023-04-30T11:28:17;101492.03;;;47.35;2.73
76853;BME280;65825;52.232;10.566;2023-04-30T11:30:52;101483.03;;;47.70;2.94
76853;BME280;65825;52.232;10.566;2023-04-30T11:33:18;101487.63;;;47.91;3.16
76853;BME280;65825;52.232;10.566;2023-04-30T11:35:44;101472.28;;;48.03;3.96
76853;BME280;65825;52.232;10.566;2023-04-30T11:38:11;101480.22;;;48.46;4.28
76853;BME280;65825;52.232;10.566;2023-04-30T11:40:37;101469.88;;;48.92;3.33
76853;BME280;65825;52.232;10.566;2023-04-30T11:43:02;101476.81;;;49.59;2.95
76853;BME280;65825;52.232;10.566;2023-04-30T11:45:28;101484.44;;;49.24;2.87
76853;BME280;65825;52.232;10.566;2023-04-30T11:47:55;101476.59;;;48.66;2.55
76853;BME280;65825;52.232;10.566;2023-04-30T11:50:23;101470.59;;;46.73;3.19
76853;BME280;65825;52.232;10.566;2023-04-30T11:52:54;101472.78;;;47.39;2.66
76853;BME280;65825;52.232;10.566;2023-04-30T11:55:24;101474.78;;;48.05;3.56
76853;BME280;65825;52.232;10.566;2023-04-30T11:57:51;101469.13;;;47.95;3.06
76853;BME280;65825;52.232;10.566;2023-04-30T12:00:21;101458.75;;;47.85;3.19
76853;BME280;65825;52.232;10.566;2023-04-30T12:02:48;101461.53;;;46.92;4.13
76853;BME280;65825;52.232;10.566;2023-04-30T12:05:18;101458.13;;;47.27;3.15
76853;BME280;65825;52.232;10.566;2023-04-30T12:10:13;101445.97;;;45.31;3.60
76853;BME280;65825;52.232;10.566;2023-04-30T12:12:38;101438.59;;;45.41;4.57
76853;BME280;65825;52.232;10.566;2023-04-30T12:15:11;101444.69;;;46.03;4.85
76853;BME280;65825;52.232;10.566;2023-04-30T12:17:37;101444.13;;;46.01;5.11
76853;BME280;65825;52.232;10.566;2023-04-30T12:20:02;101447.69;;;44.99;5.00
76853;BME280;65825;52.232;10.566;2023-04-30T12:22:29;101445.13;;;43.41;4.67
76853;BME280;65825;52.232;10.566;2023-04-30T12:24:55;101439.84;;;42.52;6.11
76853;BME280;65825;52.232;10.566;2023-04-30T12:27:21;101434.41;;;40.65;5.17
76853;BME280;65825;52.232;10.566;2023-04-30T12:29:46;101428.84;;;41.32;6.38
76853;BME280;65825;52.232;10.566;2023-04-30T12:32:14;101425.91;;;41.27;7.02
76853;BME280;65825;52.232;10.566;2023-04-30T12:34:41;101425.09;;;41.81;5.98
76853;BME280;65825;52.232;10.566;2023-04-30T12:37:06;101424.72;;;42.48;5.96
76853;BME280;65825;52.232;10.566;2023-04-30T12:39:34;101429.88;;;42.03;6.15
76853;BME280;65825;52.232;10.566;2023-04-30T12:42:00;101433.66;;;41.79;5.96
76853;BME280;65825;52.232;10.566;2023-04-30T12:44:26;101425.09;;;40.53;5.30
76853;BME280;65825;52.232;10.566;2023-04-30T12:46:54;101424.19;;;40.35;6.52
76853;BME280;65825;52.232;10.566;2023-04-30T12:51:50;101431.13;;;40.44;7.88
76853;BME280;65825;52.232;10.566;2023-04-30T12:54:26;101424.28;;;38.43;6.96
76853;BME280;65825;52.232;10.566;2023-04-30T12:57:09;101418.47;;;39.35;7.02
76853;BME280;65825;52.232;10.566;2023-04-30T13:02:18;101416.88;;;40.71;6.47
76853;BME280;65825;52.232;10.566;2023-04-30T13:04:46;101409.72;;;40.33;7.48
76853;BME280;65825;52.232;10.566;2023-04-30T13:07:11;101409.53;;;40.83;6.84
76853;BME280;65825;52.232;10.566;2023-04-30T13:09:37;101406.44;;;40.42;6.71
76853;BME280;65825;52.232;10.566;2023-04-30T13:12:03;101400.06;;;38.71;6.70
76853;BME280;65825;52.232;10.566;2023-04-30T13:14:30;101391.25;;;36.53;7.49